Bukit Panjang, Singapore
Current Conditions -  °F | °C
As of 9:00 AM on Sunday 21 Dec 2014 (Local Time) from WSSL Reporting Station
Broken Clouds Broken Clouds  
Wind Chill: 81°   Ceiling: 30000
Heat Index: 87°   Visibility: 6mi
Dew Point: 77°   Wind: 3mph
Humidity: 89%   Direction: 320°NW
Pressure: 29.8"   Gusts: NA
Location:  1.39°N, 103.78°E
Report Text: WSSL 210100Z 32003KT 290V350 9999 FEW016 FEW020CB FEW022TCUBKN300 27/25 Q1009 RMK 0030Z Q1009
Loading
Personal Weather Stations






























Interactive Weather Map New forecast layout! Learn more

10-Day Weather Forecast

Advertisements
Track Severe Weather on mobile